sensor_id;sensor_type;location;lat;lon;timestamp;temperature;humidity
21163;DHT22;10739;52.198;20.908;2024-02-26T00:01:45;5.20;99.90
21163;DHT22;10739;52.198;20.908;2024-02-26T00:04:12;5.20;99.90
21163;DHT22;10739;52.198;20.908;2024-02-26T00:06:39;5.10;99.90
21163;DHT22;10739;52.198;20.908;2024-02-26T00:09:08;5.10;99.90
21163;DHT22;10739;52.198;20.908;2024-02-26T00:11:37;5.10;99.90
21163;DHT22;10739;52.198;20.908;2024-02-26T00:14:04;5.00;99.90
21163;DHT22;10739;52.198;20.908;2024-02-26T00:16:30;5.00;99.90
21163;DHT22;10739;52.198;20.908;2024-02-26T00:18:57;5.00;99.90
21163;DHT22;10739;52.198;20.908;2024-02-26T00:21:23;4.90;99.90
21163;DHT22;10739;52.198;20.908;2024-02-26T00:23:49;4.90;99.90
21163;DHT22;10739;52.198;20.908;2024-02-26T00:26:16;4.90;99.90
21163;DHT22;10739;52.198;20.908;2024-02-26T00:28:43;4.90;99.90
21163;DHT22;10739;52.198;20.908;2024-02-26T00:31:09;4.80;99.90
21163;DHT22;10739;52.198;20.908;2024-02-26T00:33:36;4.90;99.90
21163;DHT22;10739;52.198;20.908;2024-02-26T00:36:02;4.80;99.90
21163;DHT22;10739;52.198;20.908;2024-02-26T00:38:28;4.90;99.90
21163;DHT22;10739;52.198;20.908;2024-02-26T00:40:55;5.00;99.90
21163;DHT22;10739;52.198;20.908;2024-02-26T00:43:22;5.00;99.90
21163;DHT22;10739;52.198;20.908;2024-02-26T00:45:49;5.10;99.90
21163;DHT22;10739;52.198;20.908;2024-02-26T00:48:18;5.10;99.90
21163;DHT22;10739;52.198;20.908;2024-02-26T00:50:44;5.20;99.90
21163;DHT22;10739;52.198;20.908;2024-02-26T00:53:10;5.20;99.90
21163;DHT22;10739;52.198;20.908;2024-02-26T00:55:36;5.20;99.90
21163;DHT22;10739;52.198;20.908;2024-02-26T00:58:02;5.20;99.90
21163;DHT22;10739;52.198;20.908;2024-02-26T01:00:29;5.20;99.90
21163;DHT22;10739;52.198;20.908;2024-02-26T01:02:54;5.30;99.90
21163;DHT22;10739;52.198;20.908;2024-02-26T01:05:21;5.20;99.90
21163;DHT22;10739;52.198;20.908;2024-02-26T01:07:47;5.20;99.90
21163;DHT22;10739;52.198;20.908;2024-02-26T01:10:13;5.20;99.90
21163;DHT22;10739;52.198;20.908;2024-02-26T01:12:39;5.10;99.90
21163;DHT22;10739;52.198;20.908;2024-02-26T01:15:05;5.00;99.90
21163;DHT22;10739;52.198;20.908;2024-02-26T01:17:32;5.00;99.90
21163;DHT22;10739;52.198;20.908;2024-02-26T01:19:58;5.00;99.90
21163;DHT22;10739;52.198;20.908;2024-02-26T01:22:24;5.00;99.90
21163;DHT22;10739;52.198;20.908;2024-02-26T01:24:50;5.00;99.90
21163;DHT22;10739;52.198;20.908;2024-02-26T01:27:16;5.10;99.90
21163;DHT22;10739;52.198;20.908;2024-02-26T01:29:43;5.10;99.90
21163;DHT22;10739;52.198;20.908;2024-02-26T01:32:09;5.10;99.90
21163;DHT22;10739;52.198;20.908;2024-02-26T01:34:36;5.10;99.90
21163;DHT22;10739;52.198;20.908;2024-02-26T01:37:03;5.10;99.90
21163;DHT22;10739;52.198;20.908;2024-02-26T01:39:30;5.10;99.90
21163;DHT22;10739;52.198;20.908;2024-02-26T01:41:56;5.10;99.90
21163;DHT22;10739;52.198;20.908;2024-02-26T01:44:23;5.10;99.90
21163;DHT22;10739;52.198;20.908;2024-02-26T01:46:49;5.10;99.90
21163;DHT22;10739;52.198;20.908;2024-02-26T01:49:15;5.10;99.90
21163;DHT22;10739;52.198;20.908;2024-02-26T01:51:43;5.10;99.90
21163;DHT22;10739;52.198;20.908;2024-02-26T01:54:11;5.10;99.90
21163;DHT22;10739;52.198;20.908;2024-02-26T01:56:38;5.10;99.90
21163;DHT22;10739;52.198;20.908;2024-02-26T01:59:06;5.10;99.90
21163;DHT22;10739;52.198;20.908;2024-02-26T02:01:34;5.00;99.90
21163;DHT22;10739;52.198;20.908;2024-02-26T02:04:01;5.00;99.90
21163;DHT22;10739;52.198;20.908;2024-02-26T02:06:28;5.00;99.90
21163;DHT22;10739;52.198;20.908;2024-02-26T02:08:54;5.00;99.90
21163;DHT22;10739;52.198;20.908;2024-02-26T02:11:21;5.10;99.90
21163;DHT22;10739;52.198;20.908;2024-02-26T02:13:47;5.10;99.90
21163;DHT22;10739;52.198;20.908;2024-02-26T02:16:13;5.10;99.90
21163;DHT22;10739;52.198;20.908;2024-02-26T02:18:39;5.10;99.90
21163;DHT22;10739;52.198;20.908;2024-02-26T02:21:06;5.10;99.90
21163;DHT22;10739;52.198;20.908;2024-02-26T02:23:32;5.00;99.90
21163;DHT22;10739;52.198;20.908;2024-02-26T02:25:59;5.00;99.90
21163;DHT22;10739;52.198;20.908;2024-02-26T02:28:26;5.00;99.90
21163;DHT22;10739;52.198;20.908;2024-02-26T02:30:54;4.90;99.90
21163;DHT22;10739;52.198;20.908;2024-02-26T02:33:21;4.90;99.90
21163;DHT22;10739;52.198;20.908;2024-02-26T02:35:48;4.70;99.90
21163;DHT22;10739;52.198;20.908;2024-02-26T02:38:16;4.70;99.90
21163;DHT22;10739;52.198;20.908;2024-02-26T02:40:43;4.60;99.90
21163;DHT22;10739;52.198;20.908;2024-02-26T02:43:09;4.50;99.90
21163;DHT22;10739;52.198;20.908;2024-02-26T02:45:35;4.40;99.90
21163;DHT22;10739;52.198;20.908;2024-02-26T02:48:01;4.30;99.90
21163;DHT22;10739;52.198;20.908;2024-02-26T02:50:27;4.30;99.90
21163;DHT22;10739;52.198;20.908;2024-02-26T02:52:55;4.20;99.90
21163;DHT22;10739;52.198;20.908;2024-02-26T02:55:21;4.20;99.90
21163;DHT22;10739;52.198;20.908;2024-02-26T02:57:47;4.20;99.90
21163;DHT22;10739;52.198;20.908;2024-02-26T03:00:13;4.20;99.90
21163;DHT22;10739;52.198;20.908;2024-02-26T03:02:39;4.20;99.90
21163;DHT22;10739;52.198;20.908;2024-02-26T03:05:06;4.20;99.90
21163;DHT22;10739;52.198;20.908;2024-02-26T03:07:32;4.20;99.90
21163;DHT22;10739;52.198;20.908;2024-02-26T03:09:59;4.20;99.90
21163;DHT22;10739;52.198;20.908;2024-02-26T03:12:25;4.10;99.90
21163;DHT22;10739;52.198;20.908;2024-02-26T03:14:51;4.10;99.90
21163;DHT22;10739;52.198;20.908;2024-02-26T03:17:20;4.10;99.90
21163;DHT22;10739;52.198;20.908;2024-02-26T03:19:47;4.00;99.90
21163;DHT22;10739;52.198;20.908;2024-02-26T03:22:13;4.00;99.90
21163;DHT22;10739;52.198;20.908;2024-02-26T03:24:39;4.00;99.90
21163;DHT22;10739;52.198;20.908;2024-02-26T03:27:05;4.00;99.90
21163;DHT22;10739;52.198;20.908;2024-02-26T03:29:38;4.00;99.90
21163;DHT22;10739;52.198;20.908;2024-02-26T03:32:05;4.00;99.90
21163;DHT22;10739;52.198;20.908;2024-02-26T03:34:35;4.00;99.90
21163;DHT22;10739;52.198;20.908;2024-02-26T03:37:01;4.10;99.90
21163;DHT22;10739;52.198;20.908;2024-02-26T03:39:27;4.10;99.90
21163;DHT22;10739;52.198;20.908;2024-02-26T03:41:53;4.20;99.90
21163;DHT22;10739;52.198;20.908;2024-02-26T03:44:20;4.20;99.90
21163;DHT22;10739;52.198;20.908;2024-02-26T03:46:46;4.20;99.90
21163;DHT22;10739;52.198;20.908;2024-02-26T03:49:12;4.20;99.90
21163;DHT22;10739;52.198;20.908;2024-02-26T03:51:39;4.20;99.90
21163;DHT22;10739;52.198;20.908;2024-02-26T03:54:05;4.20;99.90
21163;DHT22;10739;52.198;20.908;2024-02-26T03:56:31;4.30;99.90
21163;DHT22;10739;52.198;20.908;2024-02-26T03:58:57;4.40;99.90
21163;DHT22;10739;52.198;20.908;2024-02-26T04:01:25;4.40;99.90
21163;DHT22;10739;52.198;20.908;2024-02-26T04:03:51;4.40;99.90
21163;DHT22;10739;52.198;20.908;2024-02-26T04:06:18;4.40;99.90
21163;DHT22;10739;52.198;20.908;2024-02-26T04:08:47;4.40;99.90
21163;DHT22;10739;52.198;20.908;2024-02-26T04:11:13;4.40;99.90
21163;DHT22;10739;52.198;20.908;2024-02-26T04:13:43;4.50;99.90
21163;DHT22;10739;52.198;20.908;2024-02-26T04:16:12;4.40;99.90
21163;DHT22;10739;52.198;20.908;2024-02-26T04:18:38;4.40;99.90
21163;DHT22;10739;52.198;20.908;2024-02-26T04:21:04;4.50;99.90
21163;DHT22;10739;52.198;20.908;2024-02-26T04:23:32;4.50;99.90
21163;DHT22;10739;52.198;20.908;2024-02-26T04:25:59;4.50;99.90
21163;DHT22;10739;52.198;20.908;2024-02-26T04:28:25;4.50;99.90
21163;DHT22;10739;52.198;20.908;2024-02-26T04:30:55;4.50;99.90
21163;DHT22;10739;52.198;20.908;2024-02-26T04:33:21;4.50;99.90
21163;DHT22;10739;52.198;20.908;2024-02-26T04:35:48;4.60;99.90
21163;DHT22;10739;52.198;20.908;2024-02-26T04:38:14;4.60;99.90
21163;DHT22;10739;52.198;20.908;2024-02-26T04:40:40;4.60;99.90
21163;DHT22;10739;52.198;20.908;2024-02-26T04:43:06;4.60;99.90
21163;DHT22;10739;52.198;20.908;2024-02-26T04:45:33;4.50;99.90
21163;DHT22;10739;52.198;20.908;2024-02-26T04:47:59;4.40;99.90
21163;DHT22;10739;52.198;20.908;2024-02-26T04:50:26;4.40;99.90
21163;DHT22;10739;52.198;20.908;2024-02-26T04:52:52;4.30;99.90
21163;DHT22;10739;52.198;20.908;2024-02-26T04:55:18;4.30;99.90
21163;DHT22;10739;52.198;20.908;2024-02-26T04:57:44;4.20;99.90
21163;DHT22;10739;52.198;20.908;2024-02-26T05:00:11;4.20;99.90
21163;DHT22;10739;52.198;20.908;2024-02-26T05:02:38;4.20;99.90
21163;DHT22;10739;52.198;20.908;2024-02-26T05:05:05;4.10;99.90
21163;DHT22;10739;52.198;20.908;2024-02-26T05:07:32;4.20;99.90
21163;DHT22;10739;52.198;20.908;2024-02-26T05:09:58;4.30;99.90
21163;DHT22;10739;52.198;20.908;2024-02-26T05:12:24;4.40;99.90
21163;DHT22;10739;52.198;20.908;2024-02-26T05:14:51;4.40;99.90
21163;DHT22;10739;52.198;20.908;2024-02-26T05:17:17;4.50;99.90
21163;DHT22;10739;52.198;20.908;2024-02-26T05:19:43;4.60;99.90
21163;DHT22;10739;52.198;20.908;2024-02-26T05:22:10;4.70;99.90
21163;DHT22;10739;52.198;20.908;2024-02-26T05:24:38;4.70;99.90
21163;DHT22;10739;52.198;20.908;2024-02-26T05:27:04;4.80;99.90
21163;DHT22;10739;52.198;20.908;2024-02-26T05:29:31;4.80;99.90
21163;DHT22;10739;52.198;20.908;2024-02-26T05:31:57;4.90;99.90
21163;DHT22;10739;52.198;20.908;2024-02-26T05:34:23;4.90;99.90
21163;DHT22;10739;52.198;20.908;2024-02-26T05:36:49;4.90;99.90
21163;DHT22;10739;52.198;20.908;2024-02-26T05:39:15;5.00;99.90
21163;DHT22;10739;52.198;20.908;2024-02-26T05:41:42;5.00;99.90
21163;DHT22;10739;52.198;20.908;2024-02-26T05:44:11;5.00;99.90
21163;DHT22;10739;52.198;20.908;2024-02-26T05:46:37;5.00;99.90
21163;DHT22;10739;52.198;20.908;2024-02-26T05:49:03;5.10;99.90
21163;DHT22;10739;52.198;20.908;2024-02-26T05:51:29;5.10;99.90
21163;DHT22;10739;52.198;20.908;2024-02-26T05:53:55;5.10;99.90
21163;DHT22;10739;52.198;20.908;2024-02-26T05:56:24;5.20;99.90
21163;DHT22;10739;52.198;20.908;2024-02-26T05:58:50;5.20;99.90
21163;DHT22;10739;52.198;20.908;2024-02-26T06:01:17;5.20;99.90
21163;DHT22;10739;52.198;20.908;2024-02-26T06:03:44;5.30;99.90
21163;DHT22;10739;52.198;20.908;2024-02-26T06:06:13;5.30;99.90
21163;DHT22;10739;52.198;20.908;2024-02-26T06:08:41;5.30;99.90
21163;DHT22;10739;52.198;20.908;2024-02-26T06:11:07;5.30;99.90
21163;DHT22;10739;52.198;20.908;2024-02-26T06:13:34;5.40;99.90
21163;DHT22;10739;52.198;20.908;2024-02-26T06:16:01;5.50;99.90
21163;DHT22;10739;52.198;20.908;2024-02-26T06:18:28;5.50;99.90
21163;DHT22;10739;52.198;20.908;2024-02-26T06:20:54;5.50;99.90
21163;DHT22;10739;52.198;20.908;2024-02-26T06:23:20;5.50;99.90
21163;DHT22;10739;52.198;20.908;2024-02-26T06:25:46;5.60;99.90
21163;DHT22;10739;52.198;20.908;2024-02-26T06:28:14;5.60;99.90
21163;DHT22;10739;52.198;20.908;2024-02-26T06:30:40;5.60;99.90
21163;DHT22;10739;52.198;20.908;2024-02-26T06:33:06;5.70;99.90
21163;DHT22;10739;52.198;20.908;2024-02-26T06:35:32;5.70;99.90
21163;DHT22;10739;52.198;20.908;2024-02-26T06:37:58;5.80;99.90
21163;DHT22;10739;52.198;20.908;2024-02-26T06:40:24;5.80;99.90
21163;DHT22;10739;52.198;20.908;2024-02-26T06:42:51;5.80;99.90
21163;DHT22;10739;52.198;20.908;2024-02-26T06:45:17;5.90;99.90
21163;DHT22;10739;52.198;20.908;2024-02-26T06:47:45;6.00;99.90
21163;DHT22;10739;52.198;20.908;2024-02-26T06:50:12;6.00;99.90
21163;DHT22;10739;52.198;20.908;2024-02-26T06:52:39;6.10;99.90
21163;DHT22;10739;52.198;20.908;2024-02-26T06:55:06;6.10;99.90
21163;DHT22;10739;52.198;20.908;2024-02-26T06:57:34;6.20;99.90
21163;DHT22;10739;52.198;20.908;2024-02-26T07:00:00;6.30;99.90
21163;DHT22;10739;52.198;20.908;2024-02-26T07:02:29;6.40;99.90
21163;DHT22;10739;52.198;20.908;2024-02-26T07:04:55;6.40;99.90
21163;DHT22;10739;52.198;20.908;2024-02-26T07:07:24;6.50;99.90
21163;DHT22;10739;52.198;20.908;2024-02-26T07:09:51;6.50;99.90
21163;DHT22;10739;52.198;20.908;2024-02-26T07:12:17;6.60;99.90
21163;DHT22;10739;52.198;20.908;2024-02-26T07:14:45;6.70;99.90
21163;DHT22;10739;52.198;20.908;2024-02-26T07:17:11;6.80;99.90
21163;DHT22;10739;52.198;20.908;2024-02-26T07:19:37;6.80;99.90
21163;DHT22;10739;52.198;20.908;2024-02-26T07:22:03;7.00;99.90
21163;DHT22;10739;52.198;20.908;2024-02-26T07:24:29;7.00;99.90
21163;DHT22;10739;52.198;20.908;2024-02-26T07:26:56;7.20;99.90
21163;DHT22;10739;52.198;20.908;2024-02-26T07:29:22;7.30;99.90
21163;DHT22;10739;52.198;20.908;2024-02-26T07:31:47;7.30;99.90
21163;DHT22;10739;52.198;20.908;2024-02-26T07:34:14;7.40;99.90
21163;DHT22;10739;52.198;20.908;2024-02-26T07:36:40;7.50;99.90
21163;DHT22;10739;52.198;20.908;2024-02-26T07:39:06;7.60;99.90
21163;DHT22;10739;52.198;20.908;2024-02-26T07:41:32;7.70;99.90
21163;DHT22;10739;52.198;20.908;2024-02-26T07:43:58;7.90;99.90
21163;DHT22;10739;52.198;20.908;2024-02-26T07:46:25;8.00;99.90
21163;DHT22;10739;52.198;20.908;2024-02-26T07:48:51;8.20;99.90
21163;DHT22;10739;52.198;20.908;2024-02-26T07:51:17;8.50;99.90
21163;DHT22;10739;52.198;20.908;2024-02-26T07:53:43;9.10;99.90
21163;DHT22;10739;52.198;20.908;2024-02-26T07:56:09;10.30;99.90
21163;DHT22;10739;52.198;20.908;2024-02-26T07:58:36;10.20;99.90
21163;DHT22;10739;52.198;20.908;2024-02-26T08:01:02;10.50;99.90
21163;DHT22;10739;52.198;20.908;2024-02-26T08:03:28;10.90;99.90
21163;DHT22;10739;52.198;20.908;2024-02-26T08:05:54;11.00;99.90
21163;DHT22;10739;52.198;20.908;2024-02-26T08:08:21;11.30;99.90
21163;DHT22;10739;52.198;20.908;2024-02-26T08:10:47;11.50;99.90
21163;DHT22;10739;52.198;20.908;2024-02-26T08:13:13;11.90;99.90
21163;DHT22;10739;52.198;20.908;2024-02-26T08:15:39;12.40;99.90
21163;DHT22;10739;52.198;20.908;2024-02-26T08:18:05;12.30;99.90
21163;DHT22;10739;52.198;20.908;2024-02-26T08:20:32;13.10;99.90
21163;DHT22;10739;52.198;20.908;2024-02-26T08:22:58;13.40;99.90
21163;DHT22;10739;52.198;20.908;2024-02-26T08:25:24;13.80;99.90
21163;DHT22;10739;52.198;20.908;2024-02-26T08:27:51;14.00;99.90
21163;DHT22;10739;52.198;20.908;2024-02-26T08:30:17;14.10;99.90
21163;DHT22;10739;52.198;20.908;2024-02-26T08:32:44;13.70;99.90
21163;DHT22;10739;52.198;20.908;2024-02-26T08:35:11;13.60;99.90
21163;DHT22;10739;52.198;20.908;2024-02-26T08:37:37;13.70;99.90
21163;DHT22;10739;52.198;20.908;2024-02-26T08:40:05;14.00;99.90
21163;DHT22;10739;52.198;20.908;2024-02-26T08:42:32;14.10;99.90
21163;DHT22;10739;52.198;20.908;2024-02-26T08:44:58;14.60;99.90
21163;DHT22;10739;52.198;20.908;2024-02-26T08:47:28;15.20;99.90
21163;DHT22;10739;52.198;20.908;2024-02-26T08:49:54;15.60;99.90
21163;DHT22;10739;52.198;20.908;2024-02-26T08:52:20;15.20;99.90
21163;DHT22;10739;52.198;20.908;2024-02-26T08:54:47;15.50;99.90
21163;DHT22;10739;52.198;20.908;2024-02-26T08:57:13;15.80;99.90
21163;DHT22;10739;52.198;20.908;2024-02-26T08:59:39;16.00;99.90
21163;DHT22;10739;52.198;20.908;2024-02-26T09:02:05;15.90;99.90
21163;DHT22;10739;52.198;20.908;2024-02-26T09:04:34;16.30;99.90
21163;DHT22;10739;52.198;20.908;2024-02-26T09:07:01;16.40;99.90
21163;DHT22;10739;52.198;20.908;2024-02-26T09:09:28;16.70;99.90
21163;DHT22;10739;52.198;20.908;2024-02-26T09:11:54;16.80;99.90
21163;DHT22;10739;52.198;20.908;2024-02-26T09:14:21;16.70;99.90
21163;DHT22;10739;52.198;20.908;2024-02-26T09:16:47;16.60;99.90
21163;DHT22;10739;52.198;20.908;2024-02-26T09:19:18;16.80;99.90
21163;DHT22;10739;52.198;20.908;2024-02-26T09:21:45;17.00;99.90
21163;DHT22;10739;52.198;20.908;2024-02-26T09:24:12;16.90;99.90
21163;DHT22;10739;52.198;20.908;2024-02-26T09:26:38;16.20;99.90
21163;DHT22;10739;52.198;20.908;2024-02-26T09:29:04;16.20;99.90
21163;DHT22;10739;52.198;20.908;2024-02-26T09:31:31;16.00;99.90
21163;DHT22;10739;52.198;20.908;2024-02-26T09:33:58;16.30;99.90
21163;DHT22;10739;52.198;20.908;2024-02-26T09:36:24;16.70;99.90
21163;DHT22;10739;52.198;20.908;2024-02-26T09:38:50;16.40;99.90
21163;DHT22;10739;52.198;20.908;2024-02-26T09:41:16;16.60;99.90
21163;DHT22;10739;52.198;20.908;2024-02-26T09:43:45;16.70;99.90
21163;DHT22;10739;52.198;20.908;2024-02-26T09:46:14;17.20;99.90
21163;DHT22;10739;52.198;20.908;2024-02-26T09:48:44;16.40;99.90
21163;DHT22;10739;52.198;20.908;2024-02-26T09:51:11;15.50;99.90
21163;DHT22;10739;52.198;20.908;2024-02-26T09:53:38;14.70;99.90
21163;DHT22;10739;52.198;20.908;2024-02-26T09:56:08;14.30;99.90
21163;DHT22;10739;52.198;20.908;2024-02-26T09:58:37;13.70;99.90
21163;DHT22;10739;52.198;20.908;2024-02-26T10:01:11;13.60;99.90
21163;DHT22;10739;52.198;20.908;2024-02-26T10:03:43;13.40;99.90
21163;DHT22;10739;52.198;20.908;2024-02-26T10:06:13;12.90;99.90
21163;DHT22;10739;52.198;20.908;2024-02-26T10:08:40;12.90;99.90
21163;DHT22;10739;52.198;20.908;2024-02-26T10:11:08;12.60;99.90
21163;DHT22;10739;52.198;20.908;2024-02-26T10:13:36;12.40;99.90
21163;DHT22;10739;52.198;20.908;2024-02-26T10:16:02;12.40;99.90
21163;DHT22;10739;52.198;20.908;2024-02-26T10:18:45;12.30;99.90
21163;DHT22;10739;52.198;20.908;2024-02-26T10:21:12;12.30;99.90
21163;DHT22;10739;52.198;20.908;2024-02-26T10:23:39;12.30;99.90
21163;DHT22;10739;52.198;20.908;2024-02-26T10:26:05;12.20;99.90
21163;DHT22;10739;52.198;20.908;2024-02-26T10:28:33;12.20;99.90
21163;DHT22;10739;52.198;20.908;2024-02-26T10:30:59;12.10;99.90
21163;DHT22;10739;52.198;20.908;2024-02-26T10:33:25;12.10;99.90
21163;DHT22;10739;52.198;20.908;2024-02-26T10:35:53;12.20;99.90
21163;DHT22;10739;52.198;20.908;2024-02-26T10:38:19;12.10;99.90
21163;DHT22;10739;52.198;20.908;2024-02-26T10:40:48;12.00;99.90
21163;DHT22;10739;52.198;20.908;2024-02-26T10:43:15;11.90;99.90
21163;DHT22;10739;52.198;20.908;2024-02-26T10:45:43;12.00;99.90
21163;DHT22;10739;52.198;20.908;2024-02-26T10:48:13;12.10;99.90
21163;DHT22;10739;52.198;20.908;2024-02-26T10:50:40;12.10;99.90
21163;DHT22;10739;52.198;20.908;2024-02-26T10:53:21;12.10;99.90
21163;DHT22;10739;52.198;20.908;2024-02-26T10:55:52;12.10;99.90
21163;DHT22;10739;52.198;20.908;2024-02-26T10:58:31;12.10;99.90
21163;DHT22;10739;52.198;20.908;2024-02-26T11:00:58;12.00;99.90
21163;DHT22;10739;52.198;20.908;2024-02-26T11:03:26;12.00;99.90
21163;DHT22;10739;52.198;20.908;2024-02-26T11:05:54;11.80;99.90
21163;DHT22;10739;52.198;20.908;2024-02-26T11:08:22;11.70;99.90
21163;DHT22;10739;52.198;20.908;2024-02-26T11:10:53;11.60;99.90
21163;DHT22;10739;52.198;20.908;2024-02-26T11:13:21;11.50;99.90
21163;DHT22;10739;52.198;20.908;2024-02-26T11:15:53;11.60;99.90
21163;DHT22;10739;52.198;20.908;2024-02-26T11:18:22;11.60;99.90
21163;DHT22;10739;52.198;20.908;2024-02-26T11:20:50;11.50;99.90
21163;DHT22;10739;52.198;20.908;2024-02-26T11:23:17;11.40;99.90
21163;DHT22;10739;52.198;20.908;2024-02-26T11:25:43;11.60;99.90
21163;DHT22;10739;52.198;20.908;2024-02-26T11:28:15;11.70;99.90
21163;DHT22;10739;52.198;20.908;2024-02-26T11:30:46;11.70;99.90
21163;DHT22;10739;52.198;20.908;2024-02-26T11:33:15;11.70;99.90
21163;DHT22;10739;52.198;20.908;2024-02-26T11:35:42;11.80;99.90
21163;DHT22;10739;52.198;20.908;2024-02-26T11:38:17;11.80;99.90
21163;DHT22;10739;52.198;20.908;2024-02-26T11:40:47;11.90;99.90
21163;DHT22;10739;52.198;20.908;2024-02-26T11:43:14;11.90;99.90
21163;DHT22;10739;52.198;20.908;2024-02-26T11:48:14;11.80;99.90
21163;DHT22;10739;52.198;20.908;2024-02-26T11:50:46;11.60;99.90
21163;DHT22;10739;52.198;20.908;2024-02-26T11:53:27;11.60;99.90
21163;DHT22;10739;52.198;20.908;2024-02-26T11:56:20;11.70;99.90
21163;DHT22;10739;52.198;20.908;2024-02-26T11:59:11;11.80;99.90
21163;DHT22;10739;52.198;20.908;2024-02-26T12:01:48;11.90;99.90
21163;DHT22;10739;52.198;20.908;2024-02-26T12:04:21;12.00;99.90
21163;DHT22;10739;52.198;20.908;2024-02-26T12:06:52;11.90;99.90
21163;DHT22;10739;52.198;20.908;2024-02-26T12:09:37;11.90;99.90
21163;DHT22;10739;52.198;20.908;2024-02-26T12:12:13;12.00;99.90
21163;DHT22;10739;52.198;20.908;2024-02-26T12:14:55;12.00;99.90
21163;DHT22;10739;52.198;20.908;2024-02-26T12:17:23;12.00;99.90
21163;DHT22;10739;52.198;20.908;2024-02-26T12:19:51;12.10;99.90
21163;DHT22;10739;52.198;20.908;2024-02-26T12:22:19;12.20;99.90
21163;DHT22;10739;52.198;20.908;2024-02-26T12:24:46;12.30;99.90
21163;DHT22;10739;52.198;20.908;2024-02-26T12:27:12;12.40;99.90
21163;DHT22;10739;52.198;20.908;2024-02-26T12:29:39;12.40;99.90
21163;DHT22;10739;52.198;20.908;2024-02-26T12:32:06;12.40;99.90
21163;DHT22;10739;52.198;20.908;2024-02-26T12:34:32;12.50;99.90
21163;DHT22;10739;52.198;20.908;2024-02-26T12:37:01;12.50;99.90
21163;DHT22;10739;52.198;20.908;2024-02-26T12:39:27;12.50;99.90
21163;DHT22;10739;52.198;20.908;2024-02-26T12:41:54;12.40;99.90
21163;DHT22;10739;52.198;20.908;2024-02-26T12:44:25;12.50;99.90
21163;DHT22;10739;52.198;20.908;2024-02-26T12:47:03;12.60;99.90
21163;DHT22;10739;52.198;20.908;2024-02-26T12:49:30;12.70;99.90
21163;DHT22;10739;52.198;20.908;2024-02-26T12:51:57;12.70;99.90
21163;DHT22;10739;52.198;20.908;2024-02-26T12:54:29;12.60;99.90
21163;DHT22;10739;52.198;20.908;2024-02-26T12:57:00;12.70;99.90
21163;DHT22;10739;52.198;20.908;2024-02-26T12:59:27;12.80;99.90
21163;DHT22;10739;52.198;20.908;2024-02-26T13:01:55;12.90;99.90
21163;DHT22;10739;52.198;20.908;2024-02-26T13:04:21;13.00;99.90
21163;DHT22;10739;52.198;20.908;2024-02-26T13:06:47;13.00;99.90
21163;DHT22;10739;52.198;20.908;2024-02-26T13:09:14;13.10;99.90
21163;DHT22;10739;52.198;20.908;2024-02-26T13:11:40;13.20;99.90
21163;DHT22;10739;52.198;20.908;2024-02-26T13:14:06;13.20;99.90
21163;DHT22;10739;52.198;20.908;2024-02-26T13:16:32;13.20;99.90
21163;DHT22;10739;52.198;20.908;2024-02-26T13:19:09;13.20;99.90
21163;DHT22;10739;52.198;20.908;2024-02-26T13:21:36;13.30;99.90
21163;DHT22;10739;52.198;20.908;2024-02-26T13:24:02;13.30;99.90
21163;DHT22;10739;52.198;20.908;2024-02-26T13:26:29;13.30;99.90
21163;DHT22;10739;52.198;20.908;2024-02-26T13:29:02;13.30;99.90
21163;DHT22;10739;52.198;20.908;2024-02-26T13:31:29;13.40;99.90
21163;DHT22;10739;52.198;20.908;2024-02-26T13:33:55;13.40;99.90
21163;DHT22;10739;52.198;20.908;2024-02-26T13:36:23;13.30;99.90
21163;DHT22;10739;52.198;20.908;2024-02-26T13:38:53;13.30;99.90
21163;DHT22;10739;52.198;20.908;2024-02-26T13:41:22;13.30;99.90
21163;DHT22;10739;52.198;20.908;2024-02-26T13:43:48;13.40;99.90
21163;DHT22;10739;52.198;20.908;2024-02-26T13:46:16;13.40;99.90
21163;DHT22;10739;52.198;20.908;2024-02-26T13:48:42;13.40;99.90
21163;DHT22;10739;52.198;20.908;2024-02-26T13:51:09;13.50;99.90
21163;DHT22;10739;52.198;20.908;2024-02-26T13:53:35;13.50;99.90
21163;DHT22;10739;52.198;20.908;2024-02-26T13:56:02;13.60;99.90
21163;DHT22;10739;52.198;20.908;2024-02-26T13:58:31;13.60;99.90
21163;DHT22;10739;52.198;20.908;2024-02-26T14:00:57;13.70;99.90
21163;DHT22;10739;52.198;20.908;2024-02-26T14:03:25;13.70;99.90
21163;DHT22;10739;52.198;20.908;2024-02-26T14:05:52;13.70;99.90
21163;DHT22;10739;52.198;20.908;2024-02-26T14:08:18;13.70;99.90
21163;DHT22;10739;52.198;20.908;2024-02-26T14:10:44;13.70;99.90
21163;DHT22;10739;52.198;20.908;2024-02-26T14:13:10;13.70;99.90
21163;DHT22;10739;52.198;20.908;2024-02-26T14:15:36;13.70;99.90
21163;DHT22;10739;52.198;20.908;2024-02-26T14:18:05;13.60;99.90
21163;DHT22;10739;52.198;20.908;2024-02-26T14:20:31;13.60;99.90
21163;DHT22;10739;52.198;20.908;2024-02-26T14:22:57;13.50;99.90
21163;DHT22;10739;52.198;20.908;2024-02-26T14:25:23;13.60;99.90
21163;DHT22;10739;52.198;20.908;2024-02-26T14:27:49;13.50;99.90
21163;DHT22;10739;52.198;20.908;2024-02-26T14:30:16;13.50;99.90
21163;DHT22;10739;52.198;20.908;2024-02-26T14:32:42;13.50;99.90
21163;DHT22;10739;52.198;20.908;2024-02-26T14:35:09;13.50;99.90
21163;DHT22;10739;52.198;20.908;2024-02-26T14:37:36;13.50;99.90
21163;DHT22;10739;52.198;20.908;2024-02-26T14:40:03;13.50;99.90
21163;DHT22;10739;52.198;20.908;2024-02-26T14:42:29;13.50;99.90
21163;DHT22;10739;52.198;20.908;2024-02-26T14:44:56;13.50;99.90
21163;DHT22;10739;52.198;20.908;2024-02-26T14:47:22;13.50;99.90
21163;DHT22;10739;52.198;20.908;2024-02-26T14:49:48;13.50;99.90
21163;DHT22;10739;52.198;20.908;2024-02-26T14:52:17;13.50;99.90
21163;DHT22;10739;52.198;20.908;2024-02-26T14:54:43;13.40;99.90
21163;DHT22;10739;52.198;20.908;2024-02-26T14:57:10;13.40;99.90
21163;DHT22;10739;52.198;20.908;2024-02-26T14:59:36;13.40;99.90
21163;DHT22;10739;52.198;20.908;2024-02-26T15:02:02;13.30;99.90
21163;DHT22;10739;52.198;20.908;2024-02-26T15:04:29;13.30;99.90
21163;DHT22;10739;52.198;20.908;2024-02-26T15:06:55;13.30;99.90
21163;DHT22;10739;52.198;20.908;2024-02-26T15:09:21;13.20;99.90
21163;DHT22;10739;52.198;20.908;2024-02-26T15:11:47;13.20;99.90
21163;DHT22;10739;52.198;20.908;2024-02-26T15:14:13;13.10;99.90
21163;DHT22;10739;52.198;20.908;2024-02-26T15:16:40;13.10;99.90
21163;DHT22;10739;52.198;20.908;2024-02-26T15:19:06;13.00;99.90
21163;DHT22;10739;52.198;20.908;2024-02-26T15:21:32;13.00;99.90
21163;DHT22;10739;52.198;20.908;2024-02-26T15:23:59;13.00;99.90
21163;DHT22;10739;52.198;20.908;2024-02-26T15:26:25;13.00;99.90